createdAt,value
2022-08-02T00:00:47.937Z,18.73
2022-08-02T00:03:56.501Z,18.68
2022-08-02T00:07:03.318Z,18.62
2022-08-02T00:10:10.699Z,18.55
2022-08-02T00:13:17.128Z,18.47
2022-08-02T00:16:37.300Z,18.43
2022-08-02T00:19:47.906Z,18.39
2022-08-02T00:22:53.317Z,18.38
2022-08-02T00:25:59.894Z,18.35
2022-08-02T00:29:07.524Z,18.29
2022-08-02T00:32:14.034Z,18.28
2022-08-02T00:35:22.492Z,18.25
2022-08-02T00:38:28.711Z,18.20
2022-08-02T00:41:34.306Z,18.15
2022-08-02T00:44:40.931Z,18.11
2022-08-02T00:47:46.572Z,18.10
2022-08-02T00:50:56.850Z,18.07
2022-08-02T00:54:03.395Z,18.04
2022-08-02T00:57:09.913Z,18.01
2022-08-02T01:00:16.376Z,17.98
2022-08-02T01:03:29.730Z,17.96
2022-08-02T01:06:38.575Z,17.96
2022-08-02T01:09:45.474Z,17.93
2022-08-02T01:12:51.010Z,17.87
2022-08-02T01:16:03.991Z,17.89
2022-08-02T01:19:26.271Z,17.91
2022-08-02T01:23:06.409Z,17.93
2022-08-02T01:26:31.187Z,17.90
2022-08-02T01:29:45.091Z,17.88
2022-08-02T01:32:56.931Z,17.86
2022-08-02T01:36:06.363Z,17.87
2022-08-02T01:39:31.823Z,17.92
2022-08-02T01:42:40.698Z,17.96
2022-08-02T01:45:51.265Z,18.01
2022-08-02T01:48:59.337Z,18.01
2022-08-02T01:52:32.460Z,18.02
2022-08-02T01:55:57.601Z,18.01
2022-08-02T01:59:07.552Z,18.05
2022-08-02T02:02:19.635Z,18.15
2022-08-02T02:05:29.445Z,18.20
2022-08-02T02:08:39.500Z,18.21
2022-08-02T02:12:10.164Z,18.21
2022-08-02T02:15:14.674Z,18.26
2022-08-02T02:18:27.198Z,18.29
2022-08-02T02:21:35.129Z,18.30
2022-08-02T02:24:42.288Z,18.33
2022-08-02T02:27:55.309Z,18.38
2022-08-02T02:31:06.596Z,18.40
2022-08-02T02:34:19.100Z,18.43
2022-08-02T02:37:26.659Z,18.41
2022-08-02T02:40:32.660Z,18.40
2022-08-02T02:43:41.694Z,18.41
2022-08-02T02:46:48.277Z,18.43
2022-08-02T02:49:58.776Z,18.43
2022-08-02T02:53:07.140Z,18.42
2022-08-02T02:56:14.017Z,18.40
2022-08-02T02:59:19.922Z,18.32
2022-08-02T03:02:26.609Z,18.34
2022-08-02T03:05:34.886Z,18.37
2022-08-02T03:08:41.189Z,18.34
2022-08-02T03:11:47.867Z,18.34
2022-08-02T03:14:54.572Z,18.30
2022-08-02T03:18:00.237Z,18.32
2022-08-02T03:21:12.546Z,18.33
2022-08-02T03:24:27.350Z,18.29
2022-08-02T03:27:34.936Z,18.25
2022-08-02T03:30:40.746Z,18.24
2022-08-02T03:33:47.710Z,18.28
2022-08-02T03:37:00.009Z,18.33
2022-08-02T03:40:11.959Z,18.36
2022-08-02T03:43:18.585Z,18.35
2022-08-02T03:46:27.086Z,18.38
2022-08-02T03:49:33.366Z,18.37
2022-08-02T03:52:44.839Z,18.40
2022-08-02T03:55:50.981Z,18.35
2022-08-02T03:59:09.937Z,18.40
2022-08-02T04:02:16.420Z,18.45
2022-08-02T04:05:23.157Z,18.46
2022-08-02T04:08:35.587Z,18.46
2022-08-02T04:11:44.090Z,18.40
2022-08-02T04:14:50.092Z,18.41
2022-08-02T04:17:59.809Z,18.41
2022-08-02T04:21:09.308Z,18.46
2022-08-02T04:24:20.318Z,18.48
2022-08-02T04:28:15.571Z,18.47
2022-08-02T04:30:58.516Z,18.52
2022-08-02T04:34:04.129Z,18.69
2022-08-02T04:37:10.857Z,18.85
2022-08-02T04:40:19.207Z,18.94
2022-08-02T04:43:26.224Z,18.96
2022-08-02T04:46:31.950Z,19.04
2022-08-02T04:49:38.243Z,19.08
2022-08-02T04:52:45.901Z,19.08
2022-08-02T04:55:55.124Z,19.08
2022-08-02T04:59:00.736Z,19.19
2022-08-02T05:02:08.466Z,19.23
2022-08-02T05:05:13.952Z,19.18
2022-08-02T05:08:20.185Z,19.20
2022-08-02T05:11:34.596Z,19.19
2022-08-02T05:14:42.995Z,19.12
2022-08-02T05:17:48.940Z,19.13
2022-08-02T05:20:58.133Z,19.24
2022-08-02T05:24:04.247Z,19.35
2022-08-02T05:27:17.372Z,19.38
2022-08-02T05:30:27.534Z,19.87
2022-08-02T05:33:33.774Z,20.14
2022-08-02T05:36:42.119Z,20.29
2022-08-02T05:39:55.871Z,20.38
2022-08-02T05:43:06.431Z,20.45
2022-08-02T05:46:12.666Z,20.33
2022-08-02T05:49:18.287Z,20.21
2022-08-02T05:52:28.774Z,20.14
2022-08-02T05:55:38.348Z,20.19
2022-08-02T05:58:53.197Z,19.73
2022-08-02T06:02:01.220Z,19.52
2022-08-02T06:05:14.568Z,19.39
2022-08-02T06:08:22.736Z,19.22
2022-08-02T06:11:37.754Z,19.32
2022-08-02T06:14:48.423Z,19.35
2022-08-02T06:17:59.339Z,19.38
2022-08-02T06:22:34.143Z,19.32
2022-08-02T06:24:33.909Z,19.24
2022-08-02T06:27:40.148Z,19.11
2022-08-02T06:30:50.150Z,19.13
2022-08-02T06:33:56.052Z,19.20
2022-08-02T06:37:12.642Z,19.38
2022-08-02T06:40:28.918Z,19.42
2022-08-02T06:43:44.586Z,19.45
2022-08-02T06:47:09.620Z,19.57
2022-08-02T06:50:18.521Z,19.56
2022-08-02T06:53:23.879Z,19.90
2022-08-02T06:56:30.145Z,20.21
2022-08-02T06:59:35.471Z,20.28
2022-08-02T07:02:44.744Z,20.28
2022-08-02T07:05:50.818Z,20.22
2022-08-02T07:09:19.456Z,20.23
2022-08-02T07:12:22.492Z,20.14
2022-08-02T07:15:28.671Z,20.01
2022-08-02T07:18:37.981Z,19.97
2022-08-02T07:21:57.786Z,20.02
2022-08-02T07:25:08.263Z,20.02
2022-08-02T07:28:23.660Z,20.06
2022-08-02T07:31:29.807Z,20.07
2022-08-02T07:34:39.069Z,20.23
2022-08-02T07:37:55.600Z,20.13
2022-08-02T07:41:08.519Z,20.24
2022-08-02T07:44:14.026Z,20.21
2022-08-02T07:47:20.580Z,20.21
2022-08-02T07:50:28.995Z,20.10
2022-08-02T07:53:51.292Z,20.03
2022-08-02T07:57:01.373Z,19.99
2022-08-02T08:00:09.853Z,20.11
2022-08-02T08:03:17.944Z,20.06
2022-08-02T08:06:28.661Z,20.17
2022-08-02T08:09:35.053Z,20.37
2022-08-02T08:12:41.469Z,20.32
2022-08-02T08:15:52.150Z,20.41
2022-08-02T08:18:58.839Z,20.74
2022-08-02T08:22:07.855Z,21.09
2022-08-02T08:25:14.139Z,21.37
2022-08-02T08:28:19.994Z,21.51
2022-08-02T08:31:26.238Z,21.37
2022-08-02T08:34:32.912Z,21.13
2022-08-02T08:37:42.789Z,21.10
2022-08-02T08:40:48.183Z,21.10
2022-08-02T08:43:54.654Z,21.05
2022-08-02T08:47:03.333Z,21.14
2022-08-02T08:50:24.846Z,21.43
2022-08-02T08:53:47.367Z,21.52
2022-08-02T08:56:58.649Z,21.59
2022-08-02T09:00:04.298Z,21.66
2022-08-02T09:03:11.638Z,21.60
2022-08-02T09:06:16.973Z,21.77
2022-08-02T09:09:26.037Z,21.80
2022-08-02T09:12:31.395Z,21.80
2022-08-02T09:15:37.633Z,21.75
2022-08-02T09:18:45.199Z,21.88
2022-08-02T09:21:54.291Z,21.99
2022-08-02T09:25:03.314Z,22.03
2022-08-02T09:28:09.917Z,21.91
2022-08-02T09:31:18.804Z,21.89
2022-08-02T09:34:26.074Z,21.91
2022-08-02T09:37:33.066Z,21.92
2022-08-02T09:40:44.587Z,22.02
2022-08-02T09:44:04.002Z,22.09
2022-08-02T09:47:18.360Z,22.16
2022-08-02T09:50:24.110Z,22.13
2022-08-02T09:53:30.490Z,22.26
2022-08-02T09:56:51.213Z,22.45
2022-08-02T10:00:01.249Z,22.60
2022-08-02T10:03:22.283Z,22.70
2022-08-02T10:06:30.092Z,22.87
2022-08-02T10:09:41.519Z,22.70
2022-08-02T10:12:56.112Z,22.61
2022-08-02T10:16:03.003Z,22.74
2022-08-02T10:19:09.828Z,22.81
2022-08-02T10:22:19.751Z,23.04
2022-08-02T10:25:27.260Z,22.91
2022-08-02T10:28:36.673Z,22.82
2022-08-02T10:31:47.281Z,22.87
2022-08-02T10:34:57.637Z,22.99
2022-08-02T10:38:12.336Z,23.07
2022-08-02T10:41:17.876Z,23.26
2022-08-02T10:44:30.635Z,23.40
2022-08-02T10:47:36.000Z,23.37
2022-08-02T10:51:06.408Z,23.30
2022-08-02T10:54:12.723Z,23.26
2022-08-02T10:57:21.683Z,23.28
2022-08-02T11:00:31.650Z,23.51
2022-08-02T11:03:40.576Z,23.70
2022-08-02T11:07:10.838Z,23.95
2022-08-02T11:10:35.954Z,24.01
2022-08-02T11:14:07.304Z,23.82
2022-08-02T11:17:18.721Z,23.65
2022-08-02T11:20:25.282Z,23.58
2022-08-02T11:23:44.129Z,23.79
2022-08-02T11:26:51.309Z,23.73
2022-08-02T11:29:57.620Z,23.56
2022-08-02T11:33:06.558Z,23.63
2022-08-02T11:36:13.282Z,23.72
2022-08-02T11:39:20.235Z,23.60
2022-08-02T11:42:34.969Z,23.50
2022-08-02T11:45:40.405Z,23.45
2022-08-02T11:48:49.853Z,23.49
2022-08-02T11:52:03.051Z,23.70
2022-08-02T11:55:11.496Z,23.57
2022-08-02T11:58:16.798Z,23.49
2022-08-02T12:01:23.057Z,23.50
2022-08-02T12:04:31.238Z,23.36
2022-08-02T12:07:45.838Z,23.28
2022-08-02T12:10:52.657Z,23.27
2022-08-02T12:14:00.136Z,23.28
2022-08-02T12:17:22.867Z,23.44
2022-08-02T12:20:41.351Z,23.77
2022-08-02T12:23:59.376Z,23.99
2022-08-02T12:27:08.446Z,24.22
2022-08-02T12:30:15.736Z,24.17
2022-08-02T12:33:23.277Z,24.05
2022-08-02T12:36:33.300Z,23.88
2022-08-02T12:39:42.854Z,23.75
2022-08-02T12:42:52.182Z,23.69
2022-08-02T12:46:00.478Z,23.75
2022-08-02T12:49:19.031Z,23.80
2022-08-02T12:52:28.229Z,23.99
2022-08-02T12:56:01.450Z,24.10
2022-08-02T12:59:00.268Z,24.17
2022-08-02T13:02:08.846Z,24.42
2022-08-02T13:05:15.295Z,24.52
2022-08-02T13:08:24.138Z,24.63
2022-08-02T13:11:31.172Z,24.71
2022-08-02T13:14:41.830Z,24.85
2022-08-02T13:17:48.624Z,24.84
2022-08-02T13:20:54.262Z,25.00
2022-08-02T13:24:03.596Z,25.02
2022-08-02T13:27:09.975Z,25.15
2022-08-02T13:30:16.298Z,25.26
2022-08-02T13:33:21.775Z,25.37
2022-08-02T13:36:28.728Z,25.25
2022-08-02T13:39:36.895Z,25.17
2022-08-02T13:42:43.106Z,25.05
2022-08-02T13:45:48.726Z,25.12
2022-08-02T13:48:55.513Z,25.31
2022-08-02T13:52:00.985Z,25.47
2022-08-02T13:55:12.518Z,25.51
2022-08-02T13:58:18.192Z,25.42
2022-08-02T14:01:24.558Z,25.34
2022-08-02T14:04:31.582Z,25.16
2022-08-02T14:07:38.037Z,25.12
2022-08-02T14:10:46.610Z,25.07
2022-08-02T14:13:52.859Z,25.09
2022-08-02T14:16:58.741Z,25.23
2022-08-02T14:20:11.521Z,25.27
2022-08-02T14:23:42.432Z,25.35
2022-08-02T14:26:51.498Z,25.45
2022-08-02T14:29:57.673Z,25.29
2022-08-02T14:33:04.256Z,25.25
2022-08-02T14:36:10.188Z,25.23
2022-08-02T14:39:16.414Z,25.34
2022-08-02T14:42:24.596Z,25.34
2022-08-02T14:45:41.043Z,25.26
2022-08-02T14:48:46.724Z,25.25
2022-08-02T14:51:53.177Z,25.16
2022-08-02T14:54:59.668Z,25.04
2022-08-02T14:58:08.708Z,24.97
2022-08-02T15:01:14.119Z,25.14
2022-08-02T15:04:20.390Z,25.27
2022-08-02T15:07:25.844Z,25.34
2022-08-02T15:10:32.306Z,25.34
2022-08-02T15:13:42.685Z,25.37
2022-08-02T15:16:56.523Z,25.32
2022-08-02T15:20:24.875Z,25.24
2022-08-02T15:23:37.270Z,25.06
2022-08-02T15:26:43.910Z,24.79
2022-08-02T15:30:00.135Z,25.20
2022-08-02T15:33:07.279Z,26.13
2022-08-02T15:36:13.752Z,27.01
2022-08-02T15:39:19.623Z,27.61
2022-08-02T15:42:30.494Z,27.98
2022-08-02T15:45:39.578Z,28.37
2022-08-02T15:48:45.870Z,28.89
2022-08-02T15:51:51.453Z,29.45
2022-08-02T15:54:58.326Z,29.91
2022-08-02T15:58:16.815Z,30.06
2022-08-02T16:01:37.820Z,30.29
2022-08-02T16:04:45.163Z,30.48
2022-08-02T16:07:51.818Z,30.62
2022-08-02T16:10:57.925Z,30.99
2022-08-02T16:14:04.322Z,30.91
2022-08-02T16:17:12.828Z,31.08
2022-08-02T16:20:19.064Z,31.35
2022-08-02T16:24:01.499Z,31.53
2022-08-02T16:26:51.040Z,31.48
2022-08-02T16:29:56.675Z,31.50
2022-08-02T16:33:06.709Z,31.28
2022-08-02T16:36:14.553Z,31.60
2022-08-02T16:39:25.716Z,31.63
2022-08-02T16:42:31.280Z,31.94
2022-08-02T16:45:39.288Z,32.23
2022-08-02T16:48:51.295Z,32.29
2022-08-02T16:51:57.869Z,32.01
2022-08-02T16:55:03.466Z,31.97
2022-08-02T16:58:17.030Z,31.82
2022-08-02T17:01:27.459Z,31.10
2022-08-02T17:04:37.899Z,30.44
2022-08-02T17:08:08.405Z,29.97
2022-08-02T17:11:09.774Z,29.44
2022-08-02T17:14:15.371Z,28.89
2022-08-02T17:17:22.246Z,28.40
2022-08-02T17:20:42.347Z,27.92
2022-08-02T17:24:04.871Z,27.54
2022-08-02T17:27:13.762Z,27.12
2022-08-02T17:30:26.584Z,26.78
2022-08-02T17:33:32.649Z,26.48
2022-08-02T17:36:42.555Z,26.24
2022-08-02T17:39:51.564Z,26.04
2022-08-02T17:42:58.454Z,25.86
2022-08-02T17:46:04.108Z,25.69
2022-08-02T17:49:21.083Z,25.48
2022-08-02T17:52:50.988Z,25.38
2022-08-02T17:55:55.754Z,25.36
2022-08-02T17:59:20.194Z,25.23
2022-08-02T18:02:27.579Z,24.99
2022-08-02T18:05:39.077Z,24.82
2022-08-02T18:08:50.305Z,24.69
2022-08-02T18:11:57.739Z,24.55
2022-08-02T18:15:06.847Z,24.35
2022-08-02T18:18:29.301Z,24.16
2022-08-02T18:21:36.501Z,24.02
2022-08-02T18:24:45.182Z,23.89
2022-08-02T18:27:52.007Z,23.78
2022-08-02T18:30:57.440Z,23.69
2022-08-02T18:34:06.275Z,23.59
2022-08-02T18:37:11.673Z,23.48
2022-08-02T18:40:21.134Z,23.38
2022-08-02T18:43:29.505Z,23.27
2022-08-02T18:46:37.174Z,23.18
2022-08-02T18:49:46.587Z,23.10
2022-08-02T18:52:56.419Z,23.00
2022-08-02T18:56:06.786Z,22.92
2022-08-02T18:59:13.463Z,22.83
2022-08-02T19:02:20.520Z,22.74
2022-08-02T19:05:51.500Z,22.61
2022-08-02T19:09:05.778Z,22.52
2022-08-02T19:12:27.885Z,22.46
2022-08-02T19:15:34.399Z,22.39
2022-08-02T19:18:40.805Z,22.34
2022-08-02T19:22:17.525Z,22.25
2022-08-02T19:28:43.380Z,22.08
2022-08-02T19:31:59.635Z,22.02
2022-08-02T19:35:19.421Z,21.95
2022-08-02T19:38:34.866Z,21.89
2022-08-02T19:41:43.924Z,21.83
2022-08-02T19:44:53.276Z,21.77
2022-08-02T19:47:58.776Z,21.68
2022-08-02T19:51:07.824Z,21.61
2022-08-02T19:54:13.672Z,21.54
2022-08-02T19:57:20.174Z,21.43
2022-08-02T20:00:30.241Z,21.37
2022-08-02T20:03:51.315Z,21.30
2022-08-02T20:06:57.665Z,21.28
2022-08-02T20:10:04.331Z,21.22
2022-08-02T20:13:10.566Z,21.19
2022-08-02T20:16:27.296Z,21.12
2022-08-02T20:19:34.088Z,21.02
2022-08-02T20:22:54.362Z,20.91
2022-08-02T20:25:59.912Z,20.89
2022-08-02T20:29:09.273Z,20.87
2022-08-02T20:32:22.807Z,20.83
2022-08-02T20:35:30.268Z,20.79
2022-08-02T20:38:39.254Z,20.73
2022-08-02T20:41:47.723Z,20.70
2022-08-02T20:44:58.582Z,20.64
2022-08-02T20:48:08.756Z,20.60
2022-08-02T20:51:20.189Z,20.51
2022-08-02T20:54:39.813Z,20.41
2022-08-02T20:58:00.647Z,20.37
2022-08-02T21:01:08.245Z,20.31
2022-08-02T21:04:19.297Z,20.26
2022-08-02T21:07:25.771Z,20.22
2022-08-02T21:10:32.247Z,20.18
2022-08-02T21:13:46.492Z,20.12
2022-08-02T21:16:52.904Z,20.07
2022-08-02T21:20:03.793Z,20.01
2022-08-02T21:23:19.929Z,19.92
2022-08-02T21:26:30.610Z,19.83
2022-08-02T21:29:37.921Z,19.79
2022-08-02T21:32:44.411Z,19.73
2022-08-02T21:35:52.887Z,19.67
2022-08-02T21:38:59.123Z,19.59
2022-08-02T21:42:05.949Z,19.58
2022-08-02T21:45:17.418Z,19.52
2022-08-02T21:48:25.413Z,19.47
2022-08-02T21:51:35.786Z,19.45
2022-08-02T21:54:45.462Z,19.40
2022-08-02T21:57:51.987Z,19.35
2022-08-02T22:00:57.722Z,19.32
2022-08-02T22:04:04.330Z,19.27
2022-08-02T22:07:12.941Z,19.24
2022-08-02T22:10:19.981Z,19.17
2022-08-02T22:13:25.680Z,19.12
2022-08-02T22:16:44.888Z,19.08
2022-08-02T22:19:54.078Z,19.03
2022-08-02T22:23:04.103Z,18.98
2022-08-02T22:26:19.098Z,18.91
2022-08-02T22:29:25.941Z,18.83
2022-08-02T22:32:47.271Z,18.79
2022-08-02T22:35:55.213Z,18.74
2022-08-02T22:39:18.867Z,18.74
2022-08-02T22:42:25.938Z,18.71
2022-08-02T22:45:31.874Z,18.68
2022-08-02T22:48:43.998Z,18.62
2022-08-02T22:51:49.711Z,18.60
2022-08-02T22:54:59.162Z,18.57
2022-08-02T22:58:06.199Z,18.51
2022-08-02T22:59:00.261Z,22.19
2022-08-02T23:01:13.221Z,18.45
2022-08-02T23:04:18.602Z,18.42
2022-08-02T23:07:25.041Z,18.39
2022-08-02T23:10:33.490Z,18.36
2022-08-02T23:13:39.716Z,18.33
2022-08-02T23:17:00.209Z,18.30
2022-08-02T23:20:09.878Z,18.25
2022-08-02T23:23:15.241Z,18.15
2022-08-02T23:26:24.362Z,18.13
2022-08-02T23:29:29.941Z,18.12
2022-08-02T23:32:36.176Z,18.12
2022-08-02T23:35:42.917Z,18.14
2022-08-02T23:38:49.611Z,18.15
2022-08-02T23:41:57.827Z,18.15
2022-08-02T23:45:04.029Z,18.15
2022-08-02T23:48:09.471Z,18.12
2022-08-02T23:51:21.953Z,18.08
2022-08-02T23:54:29.037Z,18.06
2022-08-02T23:57:38.432Z,18.04
